ソチ の空港の天気 - METARとTAF

ソチ空港 ( URSS / AER ) - ロシア ソチ
飛行場実況気象(Metar)
観測時間08/17 06:00 MSK (08/17 03:00 UTC)
風向・風速北北西 2m/s
視程10km以上
天気現象
少しの雲 雲底高度 910m
気温25℃
湿度78%
気圧1007hPa
METARURSS 170300Z 34002MPS 9999 FEW030CB 25/21 Q1007 R06/090070 R02/090070 NOSIG RMK R02/05005MPS MT OBSC QFE754
過去の天気等 Google飛行場航空写真 Wunderground天気予報

過去48時間のMETAR

飛行場予報(TAF)
発表時間: 8/17 04:59 MSK (8/17 01:59 UTC)
予報対象時間: 17日6時 MSK ~ 18日6時 MSK
風向・風速北東 7m/s
視程10km以上
全天の4割程度の雲 雲底高度 610m
全天の4割程度の積乱雲 雲底高度 910m
全天の8割程度の雲 雲底高度 3,050m
17日6時 MSK ~ 17日10時 MSK に一時的に
風向・風速不定 7m/s 瞬間風速 12m/s
天気現象弱い雷雨
17日10時 MSK ~ 17日12時 MSK に徐々に
風向・風速西 6m/s 瞬間風速 11m/s
少しの積乱雲 雲底高度 910m
全天を覆う雲 雲底高度 3,050m
17日20時 MSK ~ 17日22時 MSK に徐々に
風向・風速北東 6m/s
全天の4割程度の雲 雲底高度 910m
全天の4割程度の雲 雲底高度 3,050m
TAF URSS 170159Z 1703/1803 05007MPS 9999 SCT020 SCT030CB BKN100
TEMPO 1703/1707 VRB07G12MPS -TSRA
BECMG 1707/1709 28006G11MPS FEW030CB OVC100
BECMG 1717/1719 05006MPS SCT030 SCT100